Terminal Aerodrome Forecast
Issued by NWS

Home | Current Version | Previous Version | Text Only | Print | Product List | Glossary On
Versions: 1 2 3 4 5 6 7 8 9 10 11 12 13 14 15 16 17 18 19 20 21 22 23 24 25 26 27 28 29 30 31 32 33 34 35 36
000
FTUS43 KDDC 241720
TAFHYS
TAF
KHYS 241720Z 2418/2518 05010KT P6SM BKN027 BKN120
     FM250600 02005KT P6SM OVC120 PROB30 2506/2509 4SM -TSRA
      OVC040CB
     FM250900 35007KT 3SM BR VCSH OVC035=

USA.gov is the U.S. government's official web portal to all federal, state and local government web resources and services.